createdAt,value
2023-05-09T00:00:59.667Z,9.59
2023-05-09T00:03:28.863Z,9.58
2023-05-09T00:05:58.367Z,9.57
2023-05-09T00:08:28.026Z,9.54
2023-05-09T00:10:57.537Z,9.52
2023-05-09T00:13:26.964Z,9.48
2023-05-09T00:15:57.473Z,9.47
2023-05-09T00:18:31.352Z,9.45
2023-05-09T00:21:01.140Z,9.46
2023-05-09T00:23:35.695Z,9.48
2023-05-09T00:26:05.532Z,9.46
2023-05-09T00:28:35.110Z,9.46
2023-05-09T00:31:05.733Z,9.45
2023-05-09T00:33:36.485Z,9.42
2023-05-09T00:36:08.098Z,9.42
2023-05-09T00:38:39.089Z,9.41
2023-05-09T00:41:08.700Z,9.37
2023-05-09T00:43:38.077Z,9.35
2023-05-09T00:46:10.575Z,9.32
2023-05-09T00:48:44.355Z,9.28
2023-05-09T00:51:13.929Z,9.25
2023-05-09T00:53:43.158Z,9.27
2023-05-09T00:56:13.015Z,9.22
2023-05-09T00:58:46.782Z,9.19
2023-05-09T01:01:16.654Z,9.15
2023-05-09T01:03:47.612Z,9.12
2023-05-09T01:06:19.577Z,9.10
2023-05-09T01:08:51.082Z,9.08
2023-05-09T01:11:22.550Z,9.05
2023-05-09T01:13:54.081Z,9.02
2023-05-09T01:16:25.556Z,8.99
2023-05-09T01:18:58.921Z,8.97
2023-05-09T01:21:33.104Z,8.95
2023-05-09T01:24:09.880Z,8.91
2023-05-09T01:26:45.823Z,8.88
2023-05-09T01:29:36.741Z,8.90
2023-05-09T01:32:10.096Z,8.84
2023-05-09T01:34:39.762Z,8.86
2023-05-09T01:37:10.952Z,8.82
2023-05-09T01:39:41.467Z,8.79
2023-05-09T01:42:11.274Z,8.76
2023-05-09T01:44:42.981Z,8.73
2023-05-09T01:47:12.459Z,8.71
2023-05-09T01:49:41.841Z,8.69
2023-05-09T01:52:11.946Z,8.68
2023-05-09T01:54:41.213Z,8.66
2023-05-09T01:57:13.320Z,8.65
2023-05-09T01:59:44.555Z,8.66
2023-05-09T02:02:14.254Z,8.67
2023-05-09T02:04:43.466Z,8.66
2023-05-09T02:07:13.072Z,8.64
2023-05-09T02:09:44.939Z,8.66
2023-05-09T02:12:14.547Z,8.69
2023-05-09T02:14:45.322Z,8.64
2023-05-09T02:17:17.133Z,8.64
2023-05-09T02:19:46.644Z,8.64
2023-05-09T02:22:16.188Z,8.62
2023-05-09T02:24:45.833Z,8.61
2023-05-09T02:27:15.529Z,8.57
2023-05-09T02:29:48.216Z,8.53
2023-05-09T02:32:18.511Z,8.52
2023-05-09T02:34:48.119Z,8.50
2023-05-09T02:37:17.658Z,8.48
2023-05-09T02:39:46.836Z,8.45
2023-05-09T02:42:20.885Z,8.44
2023-05-09T02:44:51.512Z,8.43
2023-05-09T02:47:21.084Z,8.39
2023-05-09T02:49:50.250Z,8.40
2023-05-09T02:52:19.927Z,8.38
2023-05-09T02:54:49.329Z,8.40
2023-05-09T02:57:18.849Z,8.39
2023-05-09T02:59:48.070Z,8.39
2023-05-09T03:02:24.683Z,8.36
2023-05-09T03:04:54.003Z,8.32
2023-05-09T03:07:23.650Z,8.33
2023-05-09T03:09:52.969Z,8.30
2023-05-09T03:12:22.549Z,8.27
2023-05-09T03:14:51.790Z,8.26
2023-05-09T03:17:23.401Z,8.26
2023-05-09T03:19:52.558Z,8.25
2023-05-09T03:22:22.271Z,8.27
2023-05-09T03:24:51.726Z,8.24
2023-05-09T03:27:21.567Z,8.24
2023-05-09T03:29:51.016Z,8.25
2023-05-09T03:32:20.645Z,8.28
2023-05-09T03:34:51.291Z,8.27
2023-05-09T03:37:20.786Z,8.27
2023-05-09T03:39:50.246Z,8.29
2023-05-09T03:42:19.904Z,8.31
2023-05-09T03:44:49.240Z,8.34
2023-05-09T03:47:18.985Z,8.34
2023-05-09T03:49:48.379Z,8.37
2023-05-09T03:52:19.733Z,8.39
2023-05-09T03:54:49.266Z,8.42
2023-05-09T03:57:20.813Z,8.43
2023-05-09T03:59:50.292Z,8.49
2023-05-09T04:02:21.503Z,8.53
2023-05-09T04:04:54.330Z,8.57
2023-05-09T04:07:29.774Z,8.61
2023-05-09T04:09:59.221Z,8.68
2023-05-09T04:12:29.192Z,8.76
2023-05-09T04:14:58.486Z,8.86
2023-05-09T04:17:28.254Z,8.99
2023-05-09T04:19:57.803Z,9.10
2023-05-09T04:22:28.893Z,9.25
2023-05-09T04:25:01.088Z,9.33
2023-05-09T04:27:30.517Z,9.43
2023-05-09T04:29:59.711Z,9.54
2023-05-09T04:32:29.294Z,9.67
2023-05-09T04:34:59.174Z,9.78
2023-05-09T04:37:32.857Z,9.92
2023-05-09T04:40:01.932Z,10.09
2023-05-09T04:42:33.624Z,10.25
2023-05-09T04:45:03.301Z,10.40
2023-05-09T04:47:34.437Z,10.61
2023-05-09T04:50:03.771Z,10.78
2023-05-09T04:52:34.930Z,10.88
2023-05-09T04:55:04.197Z,11.03
2023-05-09T04:57:33.933Z,11.14
2023-05-09T05:00:03.177Z,11.23
2023-05-09T05:02:32.969Z,11.32
2023-05-09T05:05:17.522Z,11.45
2023-05-09T05:07:48.869Z,11.58
2023-05-09T05:10:19.594Z,11.71
2023-05-09T05:12:49.296Z,11.83
2023-05-09T05:15:19.690Z,11.96
2023-05-09T05:17:51.536Z,12.10
2023-05-09T05:20:21.441Z,12.23
2023-05-09T05:22:54.755Z,12.37
2023-05-09T05:25:24.121Z,12.51
2023-05-09T05:27:54.016Z,12.64
2023-05-09T05:30:23.440Z,12.74
2023-05-09T05:32:53.405Z,12.90
2023-05-09T05:35:23.530Z,13.02
2023-05-09T05:37:57.367Z,13.12
2023-05-09T05:40:28.772Z,13.29
2023-05-09T05:42:58.551Z,13.45
2023-05-09T05:45:29.674Z,13.59
2023-05-09T05:47:59.376Z,13.75
2023-05-09T05:50:28.597Z,13.90
2023-05-09T05:53:01.307Z,14.04
2023-05-09T05:55:30.628Z,14.16
2023-05-09T05:58:00.204Z,14.31
2023-05-09T06:00:29.775Z,14.41
2023-05-09T06:02:59.538Z,14.55
2023-05-09T06:05:28.769Z,14.67
2023-05-09T06:08:00.445Z,14.81
2023-05-09T06:10:31.112Z,14.91
2023-05-09T06:13:00.937Z,15.00
2023-05-09T06:15:33.061Z,15.09
2023-05-09T06:18:02.837Z,15.16
2023-05-09T06:20:32.016Z,15.22
2023-05-09T06:23:01.523Z,15.29
2023-05-09T06:25:32.062Z,15.44
2023-05-09T06:28:01.600Z,15.54
2023-05-09T06:30:30.979Z,15.62
2023-05-09T06:33:00.887Z,15.72
2023-05-09T06:35:32.387Z,15.74
2023-05-09T06:38:03.425Z,15.87
2023-05-09T06:40:34.125Z,15.92
2023-05-09T06:43:05.708Z,15.96
2023-05-09T06:45:35.385Z,16.02
2023-05-09T06:48:06.035Z,16.11
2023-05-09T06:50:35.427Z,16.22
2023-05-09T06:53:05.748Z,16.28
2023-05-09T06:55:36.396Z,16.36
2023-05-09T06:58:07.399Z,16.46
2023-05-09T07:00:37.027Z,16.49
2023-05-09T07:03:07.842Z,16.55
2023-05-09T07:05:37.232Z,16.60
2023-05-09T07:08:06.879Z,16.63
2023-05-09T07:10:38.768Z,16.68
2023-05-09T07:13:10.378Z,16.74
2023-05-09T07:15:42.696Z,16.77
2023-05-09T07:18:12.829Z,16.84
2023-05-09T07:20:42.096Z,16.88
2023-05-09T07:23:11.771Z,16.88
2023-05-09T07:25:42.520Z,16.90
2023-05-09T07:28:12.900Z,16.95
2023-05-09T07:30:43.775Z,17.02
2023-05-09T07:33:13.438Z,17.06
2023-05-09T07:35:42.622Z,17.09
2023-05-09T07:38:12.320Z,17.13
2023-05-09T07:40:43.030Z,17.19
2023-05-09T07:43:12.903Z,17.21
2023-05-09T07:45:42.136Z,17.25
2023-05-09T07:48:11.781Z,17.29
2023-05-09T07:50:41.282Z,17.30
2023-05-09T07:53:10.988Z,17.36
2023-05-09T07:55:40.194Z,17.42
2023-05-09T07:58:11.167Z,17.43
2023-05-09T08:00:40.420Z,17.48
2023-05-09T08:03:10.166Z,17.52
2023-05-09T08:05:39.592Z,17.52
2023-05-09T08:08:09.103Z,17.56
2023-05-09T08:10:38.266Z,17.54
2023-05-09T08:13:12.013Z,17.59
2023-05-09T08:15:41.372Z,17.61
2023-05-09T08:18:11.069Z,17.57
2023-05-09T08:20:41.832Z,17.62
2023-05-09T08:23:12.849Z,17.59
2023-05-09T08:25:42.038Z,17.68
2023-05-09T08:28:13.071Z,17.74
2023-05-09T08:30:42.284Z,17.77
2023-05-09T08:33:11.825Z,17.73
2023-05-09T08:35:41.179Z,17.78
2023-05-09T08:38:10.725Z,17.84
2023-05-09T08:40:39.909Z,17.85
2023-05-09T08:43:14.334Z,17.95
2023-05-09T08:45:44.467Z,17.96
2023-05-09T08:48:15.065Z,17.95
2023-05-09T08:50:44.288Z,17.98
2023-05-09T08:53:16.796Z,17.99
2023-05-09T08:55:47.207Z,17.99
2023-05-09T08:58:19.814Z,18.06
2023-05-09T09:00:49.024Z,18.08
2023-05-09T09:03:18.724Z,18.03
2023-05-09T09:05:48.781Z,18.07
2023-05-09T09:08:19.576Z,18.02
2023-05-09T09:10:48.803Z,18.11
2023-05-09T09:13:22.208Z,18.16
2023-05-09T09:15:51.654Z,18.14
2023-05-09T09:18:22.859Z,18.18
2023-05-09T09:20:52.830Z,18.10
2023-05-09T09:23:22.259Z,18.18
2023-05-09T09:25:56.162Z,18.17
2023-05-09T09:28:35.568Z,18.27
2023-05-09T09:31:20.402Z,18.31
2023-05-09T09:33:50.095Z,18.33
2023-05-09T09:36:27.719Z,18.38
2023-05-09T09:39:01.693Z,18.42
2023-05-09T09:41:34.193Z,18.45
2023-05-09T09:44:09.555Z,18.48
2023-05-09T09:46:45.486Z,18.52
2023-05-09T09:49:15.209Z,18.58
2023-05-09T09:51:44.453Z,18.51
2023-05-09T09:54:14.211Z,18.57
2023-05-09T09:56:46.387Z,18.65
2023-05-09T09:59:17.689Z,18.70
2023-05-09T10:02:06.677Z,18.73
2023-05-09T10:04:37.814Z,18.78
2023-05-09T10:07:07.836Z,18.82
2023-05-09T10:09:38.173Z,18.75
2023-05-09T10:12:08.093Z,18.78
2023-05-09T10:14:39.763Z,18.86
2023-05-09T10:17:09.610Z,18.96
2023-05-09T10:19:40.464Z,18.95
2023-05-09T10:22:10.330Z,19.03
2023-05-09T10:24:41.414Z,19.08
2023-05-09T10:27:11.511Z,19.10
2023-05-09T10:29:43.070Z,19.15
2023-05-09T10:32:14.224Z,19.16
2023-05-09T10:34:44.096Z,19.19
2023-05-09T10:37:13.354Z,19.19
2023-05-09T10:39:42.946Z,19.23
2023-05-09T10:42:12.604Z,19.26
2023-05-09T10:44:44.739Z,19.29
2023-05-09T10:47:14.052Z,19.36
2023-05-09T10:49:45.735Z,19.33
2023-05-09T10:52:15.918Z,19.41
2023-05-09T10:54:45.313Z,19.45
2023-05-09T10:57:16.889Z,19.46
2023-05-09T10:59:48.304Z,19.47
2023-05-09T11:02:20.156Z,19.55
2023-05-09T11:04:49.695Z,19.52
2023-05-09T11:07:25.401Z,19.53
2023-05-09T11:09:58.137Z,19.55
2023-05-09T11:12:27.309Z,19.56
2023-05-09T11:14:58.783Z,19.66
2023-05-09T11:17:32.495Z,19.71
2023-05-09T11:20:03.504Z,19.77
2023-05-09T11:22:33.489Z,19.75
2023-05-09T11:25:06.498Z,19.81
2023-05-09T11:27:39.459Z,19.84
2023-05-09T11:30:12.844Z,19.88
2023-05-09T11:32:43.124Z,19.82
2023-05-09T11:35:16.269Z,19.79
2023-05-09T11:37:49.295Z,19.88
2023-05-09T11:40:19.373Z,19.92
2023-05-09T11:42:50.515Z,19.97
2023-05-09T11:45:21.805Z,19.98
2023-05-09T11:47:51.204Z,20.00
2023-05-09T11:50:21.817Z,20.02
2023-05-09T11:52:51.064Z,20.06
2023-05-09T11:55:22.253Z,20.14
2023-05-09T11:57:53.059Z,20.22
2023-05-09T12:00:24.701Z,20.26
2023-05-09T12:02:54.255Z,20.35
2023-05-09T12:05:24.544Z,20.43
2023-05-09T12:07:55.367Z,20.54
2023-05-09T12:10:24.957Z,20.58
2023-05-09T12:12:57.293Z,20.74
2023-05-09T12:15:28.413Z,20.83
2023-05-09T12:18:07.239Z,20.89
2023-05-09T12:20:43.586Z,21.04
2023-05-09T12:23:14.661Z,21.11
2023-05-09T12:25:48.848Z,21.14
2023-05-09T12:28:18.146Z,21.25
2023-05-09T12:30:49.151Z,21.29
2023-05-09T12:33:18.366Z,21.39
2023-05-09T12:35:48.375Z,21.47
2023-05-09T12:38:22.602Z,21.57
2023-05-09T12:40:53.138Z,21.68
2023-05-09T12:43:22.419Z,21.73
2023-05-09T12:45:55.088Z,21.87
2023-05-09T12:48:24.468Z,21.97
2023-05-09T12:50:56.328Z,22.05
2023-05-09T12:53:26.125Z,22.12
2023-05-09T12:55:59.286Z,22.21
2023-05-09T12:58:30.632Z,22.35
2023-05-09T13:01:01.779Z,22.46
2023-05-09T13:03:37.940Z,22.63
2023-05-09T13:06:08.644Z,22.78
2023-05-09T13:08:40.431Z,22.90
2023-05-09T13:11:16.443Z,23.07
2023-05-09T13:13:48.410Z,23.20
2023-05-09T13:16:19.444Z,23.35
2023-05-09T13:18:48.692Z,23.51
2023-05-09T13:21:19.334Z,23.70
2023-05-09T13:23:50.268Z,23.91
2023-05-09T13:26:19.868Z,24.10
2023-05-09T13:28:49.050Z,24.22
2023-05-09T13:31:20.390Z,24.47
2023-05-09T13:33:51.698Z,24.54
2023-05-09T13:36:21.800Z,24.73
2023-05-09T13:38:53.154Z,24.92
2023-05-09T13:41:24.130Z,25.11
2023-05-09T13:43:53.378Z,25.26
2023-05-09T13:46:26.773Z,25.36
2023-05-09T13:48:58.387Z,25.59
2023-05-09T13:51:29.268Z,25.77
2023-05-09T13:53:58.747Z,25.97
2023-05-09T13:56:28.686Z,26.13
2023-05-09T13:58:57.829Z,26.37
2023-05-09T14:01:29.033Z,26.59
2023-05-09T14:03:58.297Z,26.78
2023-05-09T14:06:29.120Z,26.93
2023-05-09T14:08:58.291Z,27.19
2023-05-09T14:11:28.118Z,27.41
2023-05-09T14:13:57.336Z,27.50
2023-05-09T14:16:26.960Z,27.54
2023-05-09T14:18:57.965Z,27.72
2023-05-09T14:21:27.563Z,27.93
2023-05-09T14:24:01.358Z,28.09
2023-05-09T14:26:31.154Z,28.18
2023-05-09T14:29:00.481Z,28.37
2023-05-09T14:31:30.327Z,28.56
2023-05-09T14:34:01.419Z,28.69
2023-05-09T14:36:31.540Z,28.78
2023-05-09T14:39:00.773Z,28.97
2023-05-09T14:41:30.369Z,29.13
2023-05-09T14:43:59.490Z,29.28
2023-05-09T14:46:29.051Z,29.33
2023-05-09T14:49:04.067Z,29.44
2023-05-09T14:51:35.243Z,29.64
2023-05-09T14:54:04.796Z,29.76
2023-05-09T14:56:34.532Z,29.97
2023-05-09T14:59:04.476Z,30.09
2023-05-09T15:01:34.282Z,30.28
2023-05-09T15:04:03.876Z,30.22
2023-05-09T15:06:34.844Z,30.25
2023-05-09T15:09:04.546Z,30.34
2023-05-09T15:11:46.740Z,30.52
2023-05-09T15:14:20.965Z,30.64
2023-05-09T15:16:53.237Z,30.75
2023-05-09T15:19:22.623Z,30.87
2023-05-09T15:21:53.706Z,30.96
2023-05-09T15:24:22.922Z,31.09
2023-05-09T15:26:52.552Z,31.05
2023-05-09T15:29:21.903Z,31.24
2023-05-09T15:31:51.458Z,31.26
2023-05-09T15:34:22.438Z,31.33
2023-05-09T15:36:53.522Z,31.37
2023-05-09T15:39:22.790Z,31.42
2023-05-09T15:41:52.773Z,31.32
2023-05-09T15:44:24.487Z,31.35
2023-05-09T15:46:55.125Z,31.24
2023-05-09T15:49:24.401Z,31.27
2023-05-09T15:51:55.388Z,31.22
2023-05-09T15:54:26.307Z,31.00
2023-05-09T15:56:56.102Z,30.58
2023-05-09T15:59:27.369Z,30.01
2023-05-09T16:01:56.895Z,29.53
2023-05-09T16:04:26.071Z,29.02
2023-05-09T16:06:59.998Z,28.46
2023-05-09T16:09:29.146Z,27.84
2023-05-09T16:11:58.799Z,27.45
2023-05-09T16:14:28.137Z,26.86
2023-05-09T16:16:57.737Z,26.50
2023-05-09T16:19:26.860Z,25.95
2023-05-09T16:21:56.356Z,25.58
2023-05-09T16:24:27.157Z,25.37
2023-05-09T16:26:56.651Z,25.13
2023-05-09T16:29:27.501Z,24.84
2023-05-09T16:31:57.056Z,24.58
2023-05-09T16:34:26.216Z,24.21
2023-05-09T16:36:58.087Z,23.95
2023-05-09T16:39:28.731Z,23.59
2023-05-09T16:41:58.321Z,23.38
2023-05-09T16:44:27.540Z,23.25
2023-05-09T16:46:57.097Z,23.02
2023-05-09T16:49:26.259Z,22.71
2023-05-09T16:51:58.350Z,22.59
2023-05-09T16:54:29.005Z,22.48
2023-05-09T16:56:58.655Z,22.33
2023-05-09T16:59:27.822Z,22.19
2023-05-09T17:01:57.822Z,22.07
2023-05-09T17:04:27.652Z,21.88
2023-05-09T17:06:57.317Z,21.73
2023-05-09T17:09:26.984Z,21.65
2023-05-09T17:11:59.195Z,21.56
2023-05-09T17:14:28.405Z,21.45
2023-05-09T17:16:58.016Z,21.36
2023-05-09T17:19:27.119Z,21.23
2023-05-09T17:21:59.079Z,21.15
2023-05-09T17:24:28.183Z,21.01
2023-05-09T17:26:59.403Z,20.92
2023-05-09T17:29:29.509Z,20.88
2023-05-09T17:32:00.847Z,20.80
2023-05-09T17:34:30.257Z,20.72
2023-05-09T17:37:02.355Z,20.69
2023-05-09T17:39:32.809Z,20.63
2023-05-09T17:42:03.770Z,20.56
2023-05-09T17:44:32.990Z,20.48
2023-05-09T17:47:02.829Z,20.42
2023-05-09T17:49:33.157Z,20.34
2023-05-09T17:52:03.887Z,20.30
2023-05-09T17:54:33.063Z,20.21
2023-05-09T17:57:04.331Z,20.18
2023-05-09T17:59:36.179Z,20.13
2023-05-09T18:02:05.879Z,20.06
2023-05-09T18:04:35.579Z,20.01
2023-05-09T18:07:07.196Z,19.91
2023-05-09T18:09:36.369Z,19.86
2023-05-09T18:12:08.044Z,19.82
2023-05-09T18:14:39.734Z,19.76
2023-05-09T18:17:09.324Z,19.65
2023-05-09T18:19:40.125Z,19.62
2023-05-09T18:22:10.917Z,19.56
2023-05-09T18:24:40.109Z,19.50
2023-05-09T18:27:11.874Z,19.42
2023-05-09T18:29:40.991Z,19.38
2023-05-09T18:32:10.527Z,19.28
2023-05-09T18:34:40.164Z,19.23
2023-05-09T18:37:10.541Z,19.19
2023-05-09T18:39:39.891Z,19.12
2023-05-09T18:42:16.197Z,19.06
2023-05-09T18:44:49.050Z,18.99
2023-05-09T18:47:18.784Z,18.93
2023-05-09T18:49:50.127Z,18.85
2023-05-09T18:52:20.683Z,18.80
2023-05-09T18:54:49.899Z,18.73
2023-05-09T18:57:21.052Z,18.69
2023-05-09T18:59:52.048Z,18.63
2023-05-09T19:02:22.631Z,18.55
2023-05-09T19:04:52.555Z,18.51
2023-05-09T19:07:22.845Z,18.42
2023-05-09T19:09:52.094Z,18.38
2023-05-09T19:12:23.120Z,18.31
2023-05-09T19:14:54.113Z,18.23
2023-05-09T19:17:26.962Z,18.17
2023-05-09T19:19:56.138Z,18.11
2023-05-09T19:22:26.196Z,18.04
2023-05-09T19:24:55.432Z,18.01
2023-05-09T19:27:26.378Z,17.94
2023-05-09T19:29:55.492Z,17.91
2023-05-09T19:32:25.307Z,17.84
2023-05-09T19:34:54.520Z,17.76
2023-05-09T19:37:24.130Z,17.74
2023-05-09T19:39:53.650Z,17.68
2023-05-09T19:42:23.250Z,17.61
2023-05-09T19:44:53.878Z,17.58
2023-05-09T19:47:23.722Z,17.53
2023-05-09T19:49:55.532Z,17.47
2023-05-09T19:52:25.055Z,17.43
2023-05-09T19:54:54.963Z,17.34
2023-05-09T19:57:24.418Z,17.30
2023-05-09T19:59:55.776Z,17.27
2023-05-09T20:02:25.448Z,17.21
2023-05-09T20:04:54.853Z,17.17
2023-05-09T20:07:24.412Z,17.11
2023-05-09T20:09:53.678Z,17.06
2023-05-09T20:12:27.903Z,17.00
2023-05-09T20:15:00.349Z,16.95
2023-05-09T20:17:32.701Z,16.92
2023-05-09T20:20:01.976Z,16.88
2023-05-09T20:22:31.731Z,16.83
2023-05-09T20:25:00.936Z,16.77
2023-05-09T20:27:30.575Z,16.76
2023-05-09T20:30:01.242Z,16.69
2023-05-09T20:32:32.245Z,16.64
2023-05-09T20:35:01.829Z,16.60
2023-05-09T20:37:32.032Z,16.52
2023-05-09T20:40:02.461Z,16.49
2023-05-09T20:42:32.354Z,16.43
2023-05-09T20:45:04.700Z,16.39
2023-05-09T20:47:34.655Z,16.35
2023-05-09T20:50:05.717Z,16.30
2023-05-09T20:52:35.811Z,16.25
2023-05-09T20:55:09.212Z,16.20
2023-05-09T20:57:51.727Z,16.16
2023-05-09T21:03:26.183Z,16.04
2023-05-09T21:06:08.277Z,15.99
2023-05-09T21:12:14.780Z,15.84
2023-05-09T21:21:51.517Z,15.64
2023-05-09T21:24:31.313Z,15.59
2023-05-09T21:30:35.339Z,15.48
2023-05-09T21:33:54.328Z,15.40
2023-05-09T21:39:48.539Z,15.28
2023-05-09T21:49:46.279Z,15.09
2023-05-09T22:10:44.137Z,14.72
2023-05-09T22:13:46.674Z,14.65
2023-05-09T22:16:24.917Z,14.58
2023-05-09T22:37:03.447Z,14.25
2023-05-09T22:40:06.865Z,14.18
2023-05-09T22:51:07.862Z,13.94
2023-05-09T22:53:48.188Z,13.88
2023-05-09T22:56:24.325Z,13.81
2023-05-09T23:01:52.900Z,13.68
2023-05-09T23:04:39.075Z,13.60
2023-05-09T23:07:10.519Z,13.53
2023-05-09T23:13:08.043Z,13.37
2023-05-09T23:15:42.952Z,13.34
2023-05-09T23:18:13.775Z,13.27
2023-05-09T23:20:43.761Z,13.20
2023-05-09T23:23:14.761Z,13.13
2023-05-09T23:26:03.457Z,13.07
2023-05-09T23:28:49.732Z,13.01
2023-05-09T23:31:19.700Z,12.93
2023-05-09T23:33:49.413Z,12.89
2023-05-09T23:36:26.308Z,12.82
2023-05-09T23:38:56.426Z,12.74
2023-05-09T23:41:28.161Z,12.68
2023-05-09T23:43:59.666Z,12.64
2023-05-09T23:46:29.936Z,12.56
2023-05-09T23:49:20.261Z,12.51
2023-05-09T23:51:54.728Z,12.44
2023-05-09T23:54:29.147Z,12.37
2023-05-09T23:57:04.948Z,12.34
